Time;durP1;ratioP1;P1;durP2;ratioP2;P2;SDS_P1;SDS_P2;PMS_P1;PMS_P2;Temp;Humidity;BMP_temperature;BMP_pressure;BME280_temperature;BME280_humidity;BME280_pressure;Samples;Min_cycle;Max_cycle;Signal;HPM_P1;HPM_P2
2022/06/21 00:00:47;;;;;;;8.95;5.35;;;;;;;20.23;nan;94909.72;6271284;22;20012;-84
2022/06/21 00:03:16;;;;;;;9.43;5.22;;;;;;;20.30;nan;94915.31;6274517;22;20028;-84
2022/06/21 00:05:45;;;;;;;10.05;5.45;;;;;;;19.70;nan;94833.56;6273600;22;20128;-83
2022/06/21 00:08:22;;;;;;;10.88;5.07;;;;;;;20.10;nan;94902.81;6275664;22;20046;-84
2022/06/21 00:10:48;;;;;;;8.82;4.90;;;;;;;20.16;nan;94906.81;6276170;22;20037;-83
2022/06/21 00:13:20;;;;;;;8.23;4.78;;;;;;;20.01;nan;94882.19;6271914;22;20011;-83
2022/06/21 00:15:47;;;;;;;17.98;5.65;;;;;;;19.74;nan;94844.47;6272677;22;20014;-84
2022/06/21 00:18:16;;;;;;;11.00;4.97;;;;;;;19.97;nan;94902.06;6274705;22;20034;-84
2022/06/21 00:20:42;;;;;;;8.15;5.57;;;;;;;18.89;nan;94741.22;6270179;22;20038;-85
2022/06/21 00:23:17;;;;;;;11.32;5.10;;;;;;;19.04;nan;94766.63;6273409;22;20003;-83
2022/06/21 00:25:46;;;;;;;11.38;5.10;;;;;;;19.68;nan;94853.88;6269478;22;20007;-84
2022/06/21 00:28:12;;;;;;;11.48;5.93;;;;;;;19.32;nan;94790.13;6268981;22;20431;-84
2022/06/21 00:30:39;;;;;;;6.90;4.85;;;;;;;19.40;nan;94802.66;6271153;22;20007;-84
2022/06/21 00:33:10;;;;;;;11.75;4.63;;;;;;;19.81;nan;94896.56;6271980;22;20355;-83
2022/06/21 00:35:36;;;;;;;14.48;5.45;;;;;;;19.58;nan;94838.97;6274552;22;20047;-84
2022/06/21 00:38:02;;;;;;;11.35;5.63;;;;;;;19.71;nan;94894.34;6273167;22;20015;-84
2022/06/21 00:40:33;;;;;;;13.45;5.28;;;;;;;19.45;nan;94842.78;6272004;22;20296;-84
2022/06/21 00:43:05;;;;;;;9.43;5.60;;;;;;;19.48;nan;94847.50;6271944;22;20370;-84
2022/06/21 00:45:34;;;;;;;11.60;5.30;;;;;;;19.52;nan;94845.72;6274596;22;20010;-84
2022/06/21 00:48:09;;;;;;;12.65;5.00;;;;;;;19.71;nan;94866.66;6271165;22;20004;-84
2022/06/21 00:50:39;;;;;;;10.73;5.80;;;;;;;19.94;nan;94905.41;6270769;22;20039;-84
2022/06/21 00:53:24;;;;;;;9.27;5.03;;;;;;;19.54;nan;94841.56;6272517;22;20015;-84
2022/06/21 00:56:02;;;;;;;13.43;5.25;;;;;;;19.95;nan;94901.59;6274690;22;20069;-83
2022/06/21 00:58:30;;;;;;;9.70;4.85;;;;;;;20.00;nan;94904.84;6271145;22;20451;-84
2022/06/21 01:01:20;;;;;;;13.25;5.32;;;;;;;20.08;nan;94895.06;6274923;22;20173;-84
2022/06/21 01:04:11;;;;;;;14.07;4.90;;;;;;;20.04;nan;94907.66;6272075;22;20034;-85
2022/06/21 01:06:43;;;;;;;12.68;4.75;;;;;;;20.09;nan;94910.09;6271148;22;20019;-84
2022/06/21 01:09:21;;;;;;;9.43;5.03;;;;;;;20.05;nan;94895.75;6272178;22;20016;-84
2022/06/21 01:12:00;;;;;;;8.25;5.22;;;;;;;19.58;nan;94825.53;6273123;22;20047;-84
2022/06/21 01:14:27;;;;;;;11.95;5.28;;;;;;;19.66;nan;94854.22;6273872;22;20454;-84
2022/06/21 01:16:53;;;;;;;7.07;5.05;;;;;;;19.47;nan;94827.09;6270792;22;20046;-84
2022/06/21 01:19:29;;;;;;;10.15;5.20;;;;;;;19.65;nan;94893.78;6271158;22;20015;-84
2022/06/21 01:22:01;;;;;;;6.18;4.85;;;;;;;18.97;nan;94785.22;6295045;22;20352;-83
2022/06/21 01:24:43;;;;;;;11.30;5.68;;;;;;;19.50;nan;94850.66;6272851;22;20019;-84
2022/06/21 01:27:08;;;;;;;5.78;5.03;;;;;;;19.77;nan;94900.25;6273299;22;20053;-84
2022/06/21 01:29:35;;;;;;;12.77;5.93;;;;;;;19.21;nan;94820.16;6273509;22;20011;-84
2022/06/21 01:32:04;;;;;;;14.60;5.50;;;;;;;19.62;nan;94882.91;6269977;22;20070;-84
2022/06/21 01:34:30;;;;;;;14.30;5.38;;;;;;;19.25;nan;94817.56;6271755;22;20007;-84
2022/06/21 01:37:07;;;;;;;12.63;5.05;;;;;;;19.81;nan;94904.66;6274921;22;20007;-84
2022/06/21 01:39:55;;;;;;;11.75;5.70;;;;;;;19.67;nan;94898.84;6272799;22;20030;-84
2022/06/21 01:42:29;;;;;;;13.18;5.50;;;;;;;19.84;nan;94909.34;6271857;22;20008;-84
2022/06/21 01:44:58;;;;;;;10.98;5.10;;;;;;;19.63;nan;94879.09;6273008;22;20014;-85
2022/06/21 01:47:31;;;;;;;10.88;5.28;;;;;;;19.77;nan;94906.44;6271738;22;20003;-83
2022/06/21 01:50:03;;;;;;;16.30;4.93;;;;;;;19.11;nan;94799.09;6271342;22;20012;-84
2022/06/21 01:52:34;;;;;;;9.93;5.53;;;;;;;19.56;nan;94874.28;6272929;22;20065;-84
2022/06/21 01:55:04;;;;;;;8.25;5.43;;;;;;;19.07;nan;94817.00;6271927;22;20018;-84
2022/06/21 01:57:30;;;;;;;8.50;5.00;;;;;;;19.26;nan;94849.50;6275162;22;20457;-84
2022/06/21 01:59:58;;;;;;;15.05;5.20;;;;;;;19.64;nan;94916.44;6273070;22;20030;-84
2022/06/21 02:02:29;;;;;;;17.27;6.13;;;;;;;19.74;nan;94917.88;6272561;22;20003;-84
2022/06/21 02:05:04;;;;;;;16.58;6.18;;;;;;;19.59;nan;94913.97;6272929;22;20430;-84
2022/06/21 02:07:34;;;;;;;8.77;5.47;;;;;;;19.65;nan;94915.31;6274841;22;20030;-84
2022/06/21 02:10:06;;;;;;;15.30;6.07;;;;;;;19.64;nan;94916.44;6273242;22;20021;-84
2022/06/21 02:12:34;;;;;;;13.68;5.00;;;;;;;19.00;nan;94818.66;6275013;22;20343;-84
2022/06/21 02:15:02;;;;;;;10.18;5.20;;;;;;;19.19;nan;94841.22;6273305;22;20010;-84
2022/06/21 02:17:35;;;;;;;14.27;5.40;;;;;;;19.23;nan;94842.09;6274524;22;20007;-84
2022/06/21 02:20:18;;;;;;;15.30;6.03;;;;;;;19.69;nan;94914.63;6274149;22;20375;-84
2022/06/21 02:22:44;;;;;;;9.02;5.30;;;;;;;19.19;nan;94899.56;6272939;22;20012;-84
2022/06/21 02:25:17;;;;;;;10.43;5.00;;;;;;;18.37;nan;94793.94;6272228;22;20464;-85
2022/06/21 02:27:43;;;;;;;5.82;4.63;;;;;;;18.20;nan;94746.56;6272919;22;20054;-83
2022/06/21 02:30:19;;;;;;;9.25;5.15;;;;;;;19.02;nan;94848.69;6272617;22;20061;-84
2022/06/21 02:32:45;;;;;;;9.60;4.88;;;;;;;19.38;nan;94899.78;6273428;22;20019;-84
2022/06/21 02:35:28;;;;;;;13.13;4.68;;;;;;;19.05;nan;94832.69;6272436;22;20427;-84
2022/06/21 02:37:57;;;;;;;10.15;4.45;;;;;;;19.33;nan;94873.13;6274395;22;20019;-84
2022/06/21 02:40:35;;;;;;;11.02;4.75;;;;;;;18.89;nan;94813.75;6272685;22;20015;-84
2022/06/21 02:43:07;;;;;;;12.73;5.35;;;;;;;18.74;nan;94782.16;6274802;22;20011;-84
2022/06/21 02:45:54;;;;;;;10.55;5.20;;;;;;;19.50;nan;94893.69;6273200;22;20015;-85
2022/06/21 02:48:27;;;;;;;10.68;5.22;;;;;;;18.98;nan;94840.53;6272681;22;20007;-85
2022/06/21 02:51:01;;;;;;;11.85;5.13;;;;;;;19.41;nan;94896.44;6274807;22;20089;-84
2022/06/21 02:53:36;;;;;;;9.75;5.57;;;;;;;18.40;nan;94771.78;6272283;22;20046;-84
2022/06/21 02:56:25;;;;;;;9.15;5.47;;;;;;;19.44;nan;94895.78;6272457;22;20097;-85
2022/06/21 02:58:57;;;;;;;12.18;4.95;;;;;;;19.19;nan;94856.56;6272808;22;20007;-84
2022/06/21 03:01:30;;;;;;;;;;;;;;;19.11;nan;94881.63;6273281;22;20023;-84
2022/06/21 03:03:57;;;;;;;12.88;5.53;;;;;;;16.05;nan;94403.56;6274978;22;19919;-84
2022/06/21 03:06:24;;;;;;;9.60;6.03;;;;;;;17.87;nan;94695.59;6271940;22;20008;-85
2022/06/21 03:09:02;;;;;;;12.27;5.75;;;;;;;19.09;nan;94887.34;6273385;22;20083;-84
2022/06/21 03:11:33;;;;;;;13.63;5.72;;;;;;;19.01;nan;94847.91;6273942;22;20004;-84
2022/06/21 03:14:04;;;;;;;11.38;6.22;;;;;;;18.63;nan;94807.09;6272790;22;20422;-84
2022/06/21 03:16:30;;;;;;;9.82;5.68;;;;;;;18.92;nan;94852.59;6272735;22;20451;-84
2022/06/21 03:18:59;;;;;;;12.02;5.93;;;;;;;18.54;nan;94799.09;6273561;22;20012;-84
2022/06/21 03:21:35;;;;;;;8.48;5.82;;;;;;;18.84;nan;94883.81;6274344;22;20015;-84
2022/06/21 03:24:10;;;;;;;17.00;6.40;;;;;;;18.36;nan;94838.78;6273623;22;20030;-85
2022/06/21 03:26:39;;;;;;;10.65;5.82;;;;;;;18.18;nan;94799.00;6273722;22;20022;-84
2022/06/21 03:29:05;;;;;;;13.25;5.45;;;;;;;18.40;nan;94814.72;6277312;22;20008;-85
2022/06/21 03:31:35;;;;;;;9.32;5.45;;;;;;;18.51;nan;94854.28;6276957;22;19999;-84
2022/06/21 03:34:09;;;;;;;14.65;6.13;;;;;;;18.65;nan;94856.69;6275310;22;20099;-84
2022/06/21 03:36:35;;;;;;;13.18;6.03;;;;;;;18.99;nan;94890.47;6274656;22;20090;-84
2022/06/21 03:39:00;;;;;;;12.73;6.63;;;;;;;18.99;nan;94885.09;6275183;22;20039;-84
2022/06/21 03:41:44;;;;;;;20.08;6.45;;;;;;;18.57;nan;94808.44;6276680;22;20012;-84
2022/06/21 03:44:34;;;;;;;17.15;6.57;;;;;;;19.07;nan;94889.56;6274536;22;20016;-84
2022/06/21 03:47:07;;;;;;;22.98;7.72;;;;;;;18.59;nan;94800.84;6275111;22;20095;-84
2022/06/21 03:50:05;;;;;;;13.77;6.68;;;;;;;19.11;nan;94895.06;6274773;22;20008;-84
2022/06/21 03:52:47;;;;;;;15.45;6.68;;;;;;;18.48;nan;94816.53;6273474;22;20015;-84
2022/06/21 03:55:34;;;;;;;16.88;6.22;;;;;;;19.16;nan;94903.69;6274023;22;20018;-84
2022/06/21 03:58:22;;;;;;;17.75;7.03;;;;;;;19.25;nan;94904.38;6273196;22;20039;-84
2022/06/21 04:01:05;;;;;;;20.83;7.85;;;;;;;19.29;nan;94907.19;6273739;22;20327;-84
2022/06/21 04:03:33;;;;;;;18.98;7.10;;;;;;;19.35;nan;94903.16;6273492;22;20430;-84
2022/06/21 04:06:17;;;;;;;13.45;6.72;;;;;;;19.34;nan;94901.59;6272933;22;20480;-84
2022/06/21 04:08:50;;;;;;;16.75;6.80;;;;;;;19.30;nan;94862.28;6272380;22;20027;-84
2022/06/21 04:11:24;;;;;;;12.75;7.72;;;;;;;19.59;nan;94894.34;6270795;22;20056;-84
2022/06/21 04:14:09;;;;;;;17.08;7.93;;;;;;;18.30;nan;94711.25;6271728;22;20011;-84
2022/06/21 04:17:02;;;;;;;17.98;8.23;;;;;;;19.29;nan;94837.28;6271405;22;20012;-84
2022/06/21 04:19:40;;;;;;;18.52;8.20;;;;;;;18.93;nan;94792.34;6270865;22;20347;-83
2022/06/21 04:22:12;;;;;;;16.23;7.68;;;;;;;19.62;nan;94886.38;6271295;22;20473;-83
2022/06/21 04:24:51;;;;;;;16.77;8.35;;;;;;;19.31;nan;94823.50;6271362;22;20004;-84
2022/06/21 04:27:27;;;;;;;17.70;8.23;;;;;;;19.16;nan;94803.44;6270534;22;20354;-84
2022/06/21 04:30:25;;;;;;;19.85;8.77;;;;;;;19.76;nan;94888.72;6270456;22;20015;-83
2022/06/21 04:33:10;;;;;;;22.60;7.65;;;;;;;19.43;nan;94823.50;6269926;22;20004;-84
2022/06/21 04:35:41;;;;;;;25.20;9.13;;;;;;;19.13;nan;94769.19;6266292;22;20015;-83
2022/06/21 04:38:28;;;;;;;16.13;8.43;;;;;;;19.85;nan;94864.38;6266137;22;20032;-84
2022/06/21 04:41:06;;;;;;;20.35;8.65;;;;;;;19.49;nan;94819.50;6270060;22;20116;-85
2022/06/21 04:44:16;;;;;;;16.25;8.45;;;;;;;19.71;nan;94835.16;6263159;22;20090;-83
2022/06/21 04:49:57;;;;;;;15.25;8.45;;;;;;;19.62;nan;94851.41;6263459;22;20012;-83
2022/06/21 04:52:34;;;;;;;17.00;8.30;;;;;;;19.46;nan;94814.75;6265010;22;20091;-82
2022/06/21 04:55:02;;;;;;;19.67;8.30;;;;;;;18.66;nan;94690.94;6261137;22;20438;-82
2022/06/21 04:57:30;;;;;;;18.10;8.48;;;;;;;20.02;nan;94881.06;6266394;22;20027;-83
2022/06/21 05:00:04;;;;;;;18.33;9.35;;;;;;;20.04;nan;94891.50;6267041;22;20425;-83
2022/06/21 05:02:33;;;;;;;21.33;9.32;;;;;;;20.00;nan;94869.06;6267853;22;20003;-84
2022/06/21 05:05:19;;;;;;;20.52;9.93;;;;;;;20.12;nan;94893.28;6267063;22;20334;-83
2022/06/21 05:07:49;;;;;;;18.40;9.30;;;;;;;19.92;nan;94860.00;6267595;22;20302;-83
2022/06/21 05:10:42;;;;;;;25.52;10.98;;;;;;;19.90;nan;94859.56;6273903;22;20037;-83
2022/06/21 05:13:19;;;;;;;22.48;10.80;;;;;;;20.13;nan;94888.69;6267111;22;20452;-83
2022/06/21 05:16:01;;;;;;;;;;;;;;;;;;;;;
2022/06/21 05:18:33;;;;;;;28.63;11.50;;;;;;;19.99;nan;94910.56;6242935;22;20463;-83
2022/06/21 05:21:03;;;;;;;23.08;11.18;;;;;;;19.65;nan;94852.66;6263906;22;20095;-84
2022/06/21 05:23:29;;;;;;;21.85;11.00;;;;;;;19.76;nan;94880.66;6263340;22;20653;-83
2022/06/21 05:26:01;;;;;;;23.60;11.32;;;;;;;19.72;nan;94868.22;6263780;22;20018;-84
2022/06/21 05:28:29;;;;;;;;;;;;;;;20.20;nan;94913.13;6264678;22;20041;-84
2022/06/21 05:31:00;;;;;;;32.05;12.63;;;;;;;19.64;nan;94880.66;6264246;22;19967;-84
2022/06/21 05:33:31;;;;;;;;;;;;;;;20.04;nan;94913.81;6264228;22;20469;-84
2022/06/21 05:35:56;;;;;;;20.73;11.70;;;;;;;19.65;nan;94820.38;6263381;22;20342;-84
2022/06/21 05:38:30;;;;;;;23.05;11.27;;;;;;;20.34;nan;94908.94;6262941;22;20126;-83
2022/06/21 05:41:02;;;;;;;23.80;10.95;;;;;;;20.44;nan;94909.59;6261829;22;20487;-83
2022/06/21 05:43:39;;;;;;;21.77;13.68;;;;;;;19.92;nan;94846.53;6266589;22;20027;-82
2022/06/21 05:46:23;;;;;;;23.13;13.13;;;;;;;19.66;nan;94813.88;6265377;22;20012;-83
2022/06/21 05:48:49;;;;;;;25.10;12.20;;;;;;;20.18;nan;94856.91;6263874;22;20071;-85
2022/06/21 05:51:34;;;;;;;21.08;12.75;;;;;;;17.02;nan;94383.63;6257784;22;20471;-84
2022/06/21 05:54:08;;;;;;;24.55;12.27;;;;;;;20.31;nan;94844.97;6261452;22;20362;-83
2022/06/21 05:56:35;;;;;;;19.27;11.23;;;;;;;19.79;nan;94761.59;6258309;22;20032;-83
2022/06/21 05:59:08;;;;;;;15.90;10.35;;;;;;;20.21;nan;94804.28;6258727;22;20087;-83
2022/06/21 06:01:42;;;;;;;19.48;10.98;;;;;;;20.73;nan;94896.56;6259667;22;20461;-83
2022/06/21 06:04:20;;;;;;;20.17;9.07;;;;;;;20.57;nan;94893.03;6260855;22;20058;-85
2022/06/21 06:06:47;;;;;;;17.73;9.73;;;;;;;18.57;nan;94564.06;6255493;22;20458;-84
2022/06/21 06:09:24;;;;;;;18.20;9.23;;;;;;;19.86;nan;94780.63;6263408;22;20477;-84
2022/06/21 06:12:00;;;;;;;18.65;8.70;;;;;;;19.95;nan;94769.72;6261649;22;20054;-84
2022/06/21 06:15:09;;;;;;;14.15;8.80;;;;;;;20.93;nan;94899.38;6256073;22;20280;-85
2022/06/21 06:18:05;;;;;;;18.60;10.20;;;;;;;19.79;nan;94741.97;6238963;22;20113;-84
2022/06/21 06:20:41;;;;;;;16.30;9.82;;;;;;;20.40;nan;94815.22;6261504;22;20375;-84
2022/06/21 06:23:13;;;;;;;21.08;9.93;;;;;;;20.95;nan;94906.00;6258380;22;20118;-84
2022/06/21 06:25:57;;;;;;;20.92;9.70;;;;;;;20.86;nan;94905.38;6257386;22;20012;-84
2022/06/21 06:28:47;;;;;;;17.52;10.02;;;;;;;20.86;nan;94902.66;6260211;22;20046;-84
2022/06/21 06:31:20;;;;;;;18.67;10.82;;;;;;;20.57;nan;94854.53;6259341;22;20038;-84
2022/06/21 06:33:52;;;;;;;23.27;9.60;;;;;;;21.13;nan;94909.91;6264179;22;20049;-84
2022/06/21 06:36:20;;;;;;;24.05;10.32;;;;;;;20.92;nan;94857.38;6260298;22;20317;-85
2022/06/21 06:38:46;;;;;;;21.98;9.93;;;;;;;21.14;nan;94889.13;6262579;22;20024;-85
2022/06/21 06:41:47;;;;;;;22.35;9.88;;;;;;;20.95;nan;94870.16;6260246;22;20418;-84
2022/06/21 06:44:12;;;;;;;36.58;9.90;;;;;;;20.66;nan;94820.16;6204906;22;20439;-84
2022/06/21 06:46:43;;;;;;;32.13;9.77;;;;;;;21.32;nan;94906.59;6255708;22;20090;-84
2022/06/21 06:49:24;;;;;;;26.70;9.48;;;;;;;21.28;nan;94900.34;6256367;22;20102;-83
2022/06/21 06:52:17;;;;;;;21.03;8.63;;;;;;;21.43;nan;94896.06;6261237;22;20023;-84
2022/06/21 06:55:07;;;;;;;21.35;9.68;;;;;;;20.93;nan;94848.16;6256681;22;20238;-84
2022/06/21 06:57:32;;;;;;;16.13;9.18;;;;;;;21.39;nan;94893.28;6259702;22;20031;-84
2022/06/21 06:59:59;;;;;;;23.92;9.05;;;;;;;21.49;nan;94878.47;6261227;22;20003;-83
2022/06/21 07:02:33;;;;;;;16.85;8.05;;;;;;;21.05;nan;94796.88;6264711;22;20039;-82
2022/06/21 07:05:11;;;;;;;18.58;8.15;;;;;;;21.81;nan;94900.81;6263531;22;20479;-82
2022/06/21 07:07:49;;;;;;;21.17;8.38;;;;;;;21.84;nan;94883.91;6264346;22;20052;-82
2022/06/21 07:10:21;;;;;;;18.02;8.40;;;;;;;21.16;nan;94797.91;6262787;22;20003;-82
2022/06/21 07:12:50;;;;;;;27.15;9.25;;;;;;;21.52;nan;94832.69;6260621;22;20458;-82
2022/06/21 07:15:18;;;;;;;15.85;8.35;;;;;;;21.64;nan;94836.41;6262854;22;20370;-82
2022/06/21 07:17:47;;;;;;;18.63;8.50;;;;;;;21.99;nan;94876.94;6263687;22;20007;-82
2022/06/21 07:20:19;;;;;;;19.98;7.95;;;;;;;22.18;nan;94877.75;6265404;22;20041;-82
2022/06/21 07:22:45;;;;;;;19.50;7.75;;;;;;;22.21;nan;94878.94;6261680;22;20007;-82
2022/06/21 07:25:29;;;;;;;19.83;9.25;;;;;;;22.26;nan;94882.16;6264725;22;20008;-82
2022/06/21 07:28:01;;;;;;;25.83;9.10;;;;;;;22.47;nan;94881.03;6264757;22;20010;-82
2022/06/21 07:30:38;;;;;;;17.65;8.05;;;;;;;21.35;nan;94705.53;6266415;22;20402;-83
2022/06/21 07:33:10;;;;;;;49.70;12.30;;;;;;;22.30;nan;94855.22;6263648;22;20015;-83
2022/06/21 07:35:41;;;;;;;23.70;11.25;;;;;;;22.38;nan;94851.53;6265534;22;20027;-83
2022/06/21 07:38:10;;;;;;;16.33;8.18;;;;;;;21.84;nan;94752.41;6265052;22;20011;-82
2022/06/21 07:40:42;;;;;;;21.02;7.18;;;;;;;22.63;nan;94881.75;6261550;22;20019;-82
2022/06/21 07:43:15;;;;;;;18.27;7.15;;;;;;;22.43;nan;94829.63;6258845;22;20019;-81
2022/06/21 07:45:47;;;;;;;18.73;7.05;;;;;;;22.06;nan;94780.66;6261135;22;20011;-82
2022/06/21 07:48:20;;;;;;;25.02;5.97;;;;;;;22.30;nan;94784.97;6263705;22;20473;-83
2022/06/21 07:50:48;;;;;;;13.70;6.10;;;;;;;23.03;nan;94892.97;6260246;22;20089;-82
2022/06/21 07:53:38;;;;;;;10.65;5.90;;;;;;;23.09;nan;94893.44;6259914;22;20043;-81
2022/06/21 07:56:12;;;;;;;25.73;6.95;;;;;;;23.26;nan;94897.59;6260263;22;20011;-83
2022/06/21 07:58:48;;;;;;;13.13;5.93;;;;;;;23.37;nan;94899.34;6255818;22;20015;-83
2022/06/21 08:07:39;;;;;;;9.70;4.72;;;;;;;24.01;nan;94903.09;6239886;22;20674;-84
2022/06/21 08:10:11;;;;;;;10.52;5.47;;;;;;;23.59;nan;94840.94;6257399;22;20019;-84
2022/06/21 08:12:36;;;;;;;10.38;4.95;;;;;;;23.38;nan;94779.16;6261045;22;20107;-84
2022/06/21 08:15:03;;;;;;;13.18;4.85;;;;;;;24.31;nan;94900.44;6263766;22;20319;-83
2022/06/21 08:17:46;;;;;;;10.82;4.88;;;;;;;24.04;nan;94855.50;6259024;22;20019;-83
2022/06/21 08:20:38;;;;;;;11.95;5.10;;;;;;;24.59;nan;94916.25;6262381;22;20011;-83
2022/06/21 08:23:19;;;;;;;13.05;5.90;;;;;;;24.69;nan;94906.72;6262498;22;20720;-83
2022/06/21 08:26:02;;;;;;;11.30;5.72;;;;;;;24.43;nan;94851.41;6260474;22;20098;-83
2022/06/21 08:28:37;;;;;;;8.93;5.40;;;;;;;24.27;nan;94836.47;6260547;22;20023;-83
2022/06/21 08:31:12;;;;;;;14.55;7.70;;;;;;;24.01;nan;94810.22;6260041;22;20161;-83
2022/06/21 08:33:48;;;;;;;14.52;6.45;;;;;;;24.26;nan;94851.22;6260669;22;20068;-83
2022/06/21 08:36:43;;;;;;;15.35;7.20;;;;;;;24.54;nan;94857.75;6264056;22;20509;-83
2022/06/21 08:39:17;;;;;;;13.45;7.03;;;;;;;25.06;nan;94921.09;6262135;22;20028;-83
2022/06/21 08:41:58;;;;;;;21.90;7.97;;;;;;;25.14;nan;94911.09;6261912;22;20008;-82
2022/06/21 08:44:44;;;;;;;16.75;6.63;;;;;;;25.10;nan;94916.47;6261577;22;20042;-83
2022/06/21 08:47:32;;;;;;;13.55;6.78;;;;;;;24.58;nan;94849.63;6262188;22;20428;-83
2022/06/21 08:50:16;;;;;;;14.10;7.22;;;;;;;25.01;nan;94904.38;6265080;22;20004;-83
2022/06/21 08:52:55;;;;;;;18.67;8.07;;;;;;;24.61;nan;94828.00;6261692;22;20450;-83
2022/06/21 08:55:54;;;;;;;16.02;7.60;;;;;;;25.11;nan;94906.41;6258438;22;20010;-83
2022/06/21 08:58:38;;;;;;;14.13;7.38;;;;;;;24.72;nan;94838.19;6263108;22;20022;-83
2022/06/21 09:01:06;;;;;;;14.88;8.40;;;;;;;25.09;nan;94893.25;6256820;22;20094;-83
2022/06/21 09:03:50;;;;;;;18.63;8.07;;;;;;;25.22;nan;94886.38;6260640;22;20091;-83
2022/06/21 09:06:18;;;;;;;20.23;7.93;;;;;;;25.20;nan;94896.03;6266315;22;20083;-83
2022/06/21 09:09:28;;;;;;;19.33;7.70;;;;;;;25.13;nan;94921.19;6258155;22;20007;-84
2022/06/21 09:12:05;;;;;;;23.40;8.18;;;;;;;25.15;nan;94897.16;6207147;22;20106;-83
2022/06/21 09:15:08;;;;;;;24.05;8.75;;;;;;;25.23;nan;94871.66;6257064;22;20004;-84
2022/06/21 09:18:01;;;;;;;21.50;8.60;;;;;;;25.32;nan;94874.84;6258223;22;20436;-84
2022/06/21 09:20:31;;;;;;;22.60;9.05;;;;;;;25.34;nan;94875.25;6262929;22;20013;-84
2022/06/21 09:23:08;;;;;;;20.30;9.10;;;;;;;25.45;nan;94890.84;6264088;22;20122;-84
2022/06/21 09:25:52;;;;;;;13.50;9.32;;;;;;;24.91;nan;94789.19;6259620;22;20012;-84
2022/06/21 09:28:54;;;;;;;22.15;9.27;;;;;;;25.58;nan;94895.66;6263510;22;20110;-85
2022/06/21 09:31:45;;;;;;;27.65;9.05;;;;;;;25.50;nan;94874.97;6224739;22;20015;-85
2022/06/21 09:34:28;;;;;;;16.48;7.72;;;;;;;24.80;nan;94782.84;6256562;22;20014;-85
2022/06/21 09:37:22;;;;;;;21.48;9.00;;;;;;;25.59;nan;94869.28;6259754;22;20047;-84
2022/06/21 09:40:09;;;;;;;26.42;10.13;;;;;;;25.64;nan;94890.63;6263714;22;20007;-84
2022/06/21 09:42:46;;;;;;;12.60;8.80;;;;;;;25.30;nan;94800.38;6264644;22;20039;-83
2022/06/21 09:45:26;;;;;;;16.40;8.93;;;;;;;25.96;nan;94867.19;6264469;22;20845;-83
2022/06/21 09:48:08;;;;;;;19.52;8.73;;;;;;;25.73;nan;94739.00;6260670;22;20774;-83
2022/06/21 09:50:52;;;;;;;20.33;8.85;;;;;;;27.04;nan;94880.16;6258464;22;20011;-84
2022/06/21 09:53:23;;;;;;;11.52;8.25;;;;;;;27.61;nan;94860.03;6260162;22;20580;-83
2022/06/21 09:56:00;;;;;;;15.85;7.85;;;;;;;27.64;nan;94847.56;6262391;22;20019;-84
2022/06/21 09:58:55;;;;;;;17.05;7.95;;;;;;;27.97;nan;94870.88;6263169;22;20170;-83
2022/06/21 10:01:25;;;;;;;11.05;7.90;;;;;;;27.62;nan;94796.19;6263871;22;20615;-83
2022/06/21 10:03:59;;;;;;;14.15;8.48;;;;;;;28.18;nan;94797.25;6263085;22;20054;-83
2022/06/21 10:06:34;;;;;;;13.80;8.05;;;;;;;28.69;nan;94869.53;6265922;22;20026;-83
2022/06/21 10:09:26;;;;;;;14.48;7.47;;;;;;;28.23;nan;94790.59;6265384;22;20352;-83
2022/06/21 10:12:21;;;;;;;13.95;7.40;;;;;;;28.75;nan;94829.75;6269780;22;20123;-84
2022/06/21 10:14:57;;;;;;;13.18;8.15;;;;;;;28.70;nan;94835.59;6225139;22;20015;-84
2022/06/21 10:17:47;;;;;;;15.20;7.40;;;;;;;29.03;nan;94837.81;6261456;22;20796;-84
2022/06/21 10:20:48;;;;;;;15.32;6.95;;;;;;;29.39;nan;94840.31;6262367;22;20090;-85
2022/06/21 10:23:16;;;;;;;14.40;7.20;;;;;;;29.70;nan;94842.00;6265567;22;20027;-84
2022/06/21 10:25:56;;;;;;;13.48;7.25;;;;;;;29.64;nan;94889.28;6257941;22;20111;-85
2022/06/21 10:28:56;;;;;;;10.53;5.90;;;;;;;29.82;nan;94827.06;6265015;22;20422;-84
2022/06/21 10:31:51;;;;;;;18.00;7.28;;;;;;;29.91;nan;94857.41;6258428;22;20350;-84
2022/06/21 10:34:41;;;;;;;8.60;6.00;;;;;;;29.59;nan;94852.25;6256553;22;20008;-84
2022/06/21 10:37:25;;;;;;;16.80;7.43;;;;;;;29.80;nan;94865.75;6257978;22;20073;-84
2022/06/21 10:40:02;;;;;;;12.50;6.38;;;;;;;29.82;nan;94849.72;6264074;22;20286;-83
2022/06/21 10:43:01;;;;;;;17.92;6.85;;;;;;;29.71;nan;94862.69;6264545;22;20536;-84
2022/06/21 10:45:35;;;;;;;12.70;6.45;;;;;;;29.37;nan;94864.53;6264898;22;20039;-84
2022/06/21 10:48:22;;;;;;;16.08;7.13;;;;;;;29.71;nan;94856.44;6262648;22;20011;-84
2022/06/21 10:51:15;;;;;;;14.82;7.45;;;;;;;29.84;nan;94850.06;6261978;22;20008;-84
2022/06/21 10:53:49;;;;;;;12.10;6.53;;;;;;;29.35;nan;94875.06;6263390;22;20004;-83
2022/06/21 10:57:09;;;;;;;10.68;6.25;;;;;;;28.98;nan;94780.91;6265283;22;20365;-83
2022/06/21 11:02:27;;;;;;;14.45;6.72;;;;;;;29.83;nan;94859.44;6266115;22;20046;-83
2022/06/21 11:04:59;;;;;;;13.10;6.97;;;;;;;28.58;nan;94666.94;6267577;22;20004;-84
2022/06/21 11:07:50;;;;;;;11.35;7.05;;;;;;;29.91;nan;94860.94;6266813;22;20004;-84
2022/06/21 11:10:28;;;;;;;12.43;6.90;;;;;;;30.06;nan;94869.81;6268500;22;20087;-84
2022/06/21 11:12:56;;;;;;;13.18;6.63;;;;;;;29.47;nan;94834.38;6265186;22;20482;-84
2022/06/21 11:15:44;;;;;;;9.05;7.18;;;;;;;30.07;nan;94865.91;6265560;22;20093;-83
2022/06/21 11:18:18;;;;;;;13.48;6.35;;;;;;;30.27;nan;94858.66;6263920;22;20081;-83
2022/06/21 11:20:53;;;;;;;18.35;7.45;;;;;;;30.38;nan;94874.16;6264297;22;20004;-84
2022/06/21 11:23:34;;;;;;;15.07;7.10;;;;;;;30.12;nan;94862.75;6265054;22;20011;-84
2022/06/21 11:26:08;;;;;;;20.15;7.50;;;;;;;29.80;nan;94876.66;6266360;22;20423;-84
2022/06/21 11:29:05;;;;;;;15.55;7.55;;;;;;;29.65;nan;94861.56;6265556;22;20004;-84
2022/06/21 11:31:54;;;;;;;17.00;7.35;;;;;;;29.08;nan;94820.22;6263860;22;20007;-84
2022/06/21 11:34:44;;;;;;;12.55;7.25;;;;;;;29.42;nan;94817.66;6264120;22;20143;-83
2022/06/21 11:37:47;;;;;;;14.05;7.82;;;;;;;29.63;nan;94874.06;6262790;22;20489;-83
2022/06/21 11:40:42;;;;;;;15.85;8.05;;;;;;;29.02;nan;94795.28;6262843;22;20106;-83
2022/06/21 11:43:49;;;;;;;17.63;7.38;;;;;;;29.70;nan;94835.75;6263214;22;20058;-83
2022/06/21 11:46:39;;;;;;;12.07;7.70;;;;;;;29.76;nan;94829.44;6261176;22;20008;-84
2022/06/21 11:49:10;;;;;;;12.10;6.85;;;;;;;30.01;nan;94858.53;6263618;22;20012;-83
2022/06/21 11:51:45;;;;;;;10.82;7.25;;;;;;;29.79;nan;94861.44;6260793;22;20624;-84
2022/06/21 11:54:17;;;;;;;18.08;6.97;;;;;;;29.63;nan;94805.75;6265779;22;20012;-83
2022/06/21 11:57:05;;;;;;;13.60;7.25;;;;;;;30.09;nan;94862.75;6264485;22;20015;-84
2022/06/21 11:59:58;;;;;;;14.00;7.35;;;;;;;30.44;nan;94843.22;6262381;22;20572;-84
2022/06/21 12:02:57;;;;;;;17.80;6.97;;;;;;;30.51;nan;94861.56;6263027;22;20015;-83
2022/06/21 12:05:34;;;;;;;17.70;7.97;;;;;;;30.47;nan;94836.16;6263513;22;20007;-83
2022/06/21 12:08:08;;;;;;;14.73;7.57;;;;;;;29.89;nan;94712.97;6268458;22;20026;-83
2022/06/21 12:10:59;;;;;;;12.75;7.70;;;;;;;30.10;nan;94794.00;6268698;22;20030;-84
2022/06/21 12:13:24;;;;;;;14.30;7.20;;;;;;;30.35;nan;94839.44;6265671;22;20008;-84
2022/06/21 12:16:20;;;;;;;17.10;7.40;;;;;;;30.27;nan;94823.13;6267353;22;20022;-83
2022/06/21 12:18:53;;;;;;;13.43;7.45;;;;;;;29.66;nan;94770.22;6267545;22;20128;-83
2022/06/21 12:21:29;;;;;;;13.75;7.28;;;;;;;29.50;nan;94716.13;6263518;22;20047;-83
2022/06/21 12:24:07;;;;;;;10.65;7.20;;;;;;;30.23;nan;94852.44;6268633;22;20008;-83
2022/06/21 12:26:34;;;;;;;14.48;7.35;;;;;;;29.39;nan;94752.91;6265139;22;20068;-83
2022/06/21 12:29:05;;;;;;;15.13;7.38;;;;;;;29.91;nan;94773.47;6262752;22;20011;-83
2022/06/21 12:31:35;;;;;;;14.73;6.85;;;;;;;29.92;nan;94772.28;6266989;22;20454;-83
2022/06/21 12:34:06;;;;;;;18.38;8.13;;;;;;;30.05;nan;94796.41;6265821;22;20015;-84
2022/06/21 12:36:46;;;;;;;16.63;6.88;;;;;;;30.59;nan;94844.63;6267261;22;20012;-84
2022/06/21 12:39:26;;;;;;;11.50;6.63;;;;;;;30.75;nan;94818.63;6265253;22;20531;-84
2022/06/21 12:41:58;;;;;;;13.70;7.28;;;;;;;30.71;nan;94826.13;6264103;22;20486;-83
2022/06/21 12:44:53;;;;;;;12.70;7.03;;;;;;;30.62;nan;94818.41;6266317;22;20072;-83